Terminal Aerodrome Forecast
Issued by NWS

Home | Current Version | Previous Version | Text Only | Print | Product List | Glossary On
Versions: 1 2 3 4 5 6 7 8 9 10 11 12 13 14 15 16 17 18 19 20 21 22 23 24 25 26
000
FTUS41 KRNK 170523
TAFBCB
TAF
KBCB 170523Z 1706/1806 30005KT P6SM VCSH OVC035
     FM170900 30008KT 6SM -SN BKN025
      TEMPO 1709/1711 4SM -SN OVC015
     FM171100 30007KT P6SM VCSH OVC035
     FM171500 30009KT P6SM SCT060=

USA.gov is the U.S. government's official web portal to all federal, state and local government web resources and services.